Time;durP1;ratioP1;P1;durP2;ratioP2;P2;SDS_P1;SDS_P2;PMS_P1;PMS_P2;Temp;Humidity;BMP_temperature;BMP_pressure;BME280_temperature;BME280_humidity;BME280_pressure;Samples;Min_cycle;Max_cycle;Signal;HPM_P1;HPM_P2
2021/12/28 00:01:15;;;;;;;0.95;0.50;;;23.20;61.00;;;;;;4121414;28;20491;-55
2021/12/28 00:03:18;;;;;;;5.50;0.65;;;23.20;61.10;;;;;;4144969;28;20048;-52
2021/12/28 00:05:20;;;;;;;3.10;0.88;;;23.20;61.00;;;;;;4136205;28;20071;-49
2021/12/28 00:07:23;;;;;;;2.80;0.50;;;23.20;61.00;;;;;;4119164;28;20046;-56
2021/12/28 00:09:25;;;;;;;2.00;0.57;;;23.20;60.90;;;;;;4129262;28;20056;-54
2021/12/28 00:11:27;;;;;;;1.55;0.50;;;23.30;61.00;;;;;;4126762;28;20847;-54
2021/12/28 00:13:30;;;;;;;1.50;0.60;;;23.30;60.80;;;;;;4134465;28;20125;-51
2021/12/28 00:15:46;;;;;;;0.50;0.30;;;23.30;60.90;;;;;;4139792;28;20186;-54
2021/12/28 00:18:04;;;;;;;1.05;0.57;;;23.30;60.90;;;;;;4137028;28;20060;-52
2021/12/28 00:20:06;;;;;;;4.72;0.88;;;23.30;60.90;;;;;;4120131;28;20126;-51
2021/12/28 00:22:08;;;;;;;1.15;0.52;;;23.30;60.90;;;;;;4125113;28;21299;-52
2021/12/28 00:24:11;;;;;;;2.63;0.60;;;23.30;60.90;;;;;;4127148;28;20045;-49
2021/12/28 00:26:14;;;;;;;2.25;0.73;;;23.30;61.20;;;;;;4120324;28;20060;-50
2021/12/28 00:28:18;;;;;;;3.33;0.70;;;23.30;61.10;;;;;;4120375;28;20083;-48
2021/12/28 00:30:20;;;;;;;;;;;23.30;61.00;;;;;;4146561;28;20060;-49
2021/12/28 00:32:23;;;;;;;3.88;0.70;;;23.30;61.00;;;;;;4123652;28;22347;-49
2021/12/28 00:34:25;;;;;;;1.67;0.60;;;23.30;60.90;;;;;;4118640;28;20057;-53
2021/12/28 00:36:27;;;;;;;3.03;0.57;;;23.30;60.90;;;;;;4128301;28;20305;-54
2021/12/28 00:38:32;;;;;;;1.07;0.50;;;23.40;60.90;;;;;;4126007;28;21888;-48
2021/12/28 00:40:35;;;;;;;1.95;0.45;;;23.40;61.30;;;;;;4119925;28;20056;-51
2021/12/28 00:42:37;;;;;;;;;;;23.40;60.80;;;;;;4121266;28;20151;-47
2021/12/28 00:44:39;;;;;;;0.55;0.30;;;23.40;60.80;;;;;;4132792;28;19928;-53
2021/12/28 00:46:41;;;;;;;1.17;0.50;;;23.40;60.80;;;;;;4123125;28;21941;-56
2021/12/28 00:48:43;;;;;;;4.70;0.50;;;23.40;60.70;;;;;;4136398;28;20060;-47
2021/12/28 00:50:46;;;;;;;0.40;0.20;;;23.40;60.70;;;;;;4130029;28;20048;-55
2021/12/28 00:52:49;;;;;;;1.35;0.50;;;23.40;60.70;;;;;;4142813;28;20070;-53
2021/12/28 00:54:51;;;;;;;2.08;0.50;;;23.50;60.90;;;;;;4121514;28;20112;-50
2021/12/28 00:56:53;;;;;;;1.95;0.70;;;23.50;61.60;;;;;;4122508;28;20073;-52
2021/12/28 00:58:56;;;;;;;0.90;0.30;;;23.50;61.00;;;;;;4130840;28;20056;-49
2021/12/28 01:02:11;;;;;;;2.47;0.90;;;23.50;60.50;;;;;;4178751;27;20418;-51
2021/12/28 01:04:14;;;;;;;1.77;0.70;;;23.50;60.90;;;;;;4139582;28;20168;-48
2021/12/28 01:06:16;;;;;;;1.02;0.68;;;23.50;60.80;;;;;;4169046;28;21179;-49
2021/12/28 01:08:19;;;;;;;1.50;0.50;;;23.50;60.80;;;;;;4181433;28;20044;-45
2021/12/28 01:10:24;;;;;;;1.13;0.60;;;23.50;60.70;;;;;;4147358;28;20135;-52
2021/12/28 01:12:26;;;;;;;1.42;0.52;;;23.50;60.60;;;;;;4155319;28;20040;-49
2021/12/28 01:14:29;;;;;;;3.35;0.75;;;23.60;60.70;;;;;;4175272;28;20137;-55
2021/12/28 01:16:31;;;;;;;1.58;0.55;;;23.60;60.70;;;;;;4183261;28;20054;-53
2021/12/28 01:18:33;;;;;;;1.52;0.60;;;23.60;60.60;;;;;;4171493;28;20605;-48
2021/12/28 01:20:36;;;;;;;1.80;0.57;;;23.60;60.30;;;;;;4156333;28;20051;-51
2021/12/28 01:22:39;;;;;;;1.65;0.85;;;23.60;60.00;;;;;;4161854;28;20131;-51
2021/12/28 01:24:41;;;;;;;18.05;1.20;;;23.60;59.90;;;;;;4175945;28;20135;-51
2021/12/28 01:26:43;;;;;;;1.98;0.65;;;23.60;59.90;;;;;;4169915;28;20491;-47
2021/12/28 01:28:45;;;;;;;1.02;0.65;;;23.60;59.90;;;;;;4179160;28;20471;-52
2021/12/28 01:30:48;;;;;;;4.43;0.60;;;23.60;60.00;;;;;;4174322;28;20060;-48
2021/12/28 01:32:50;;;;;;;2.30;0.60;;;23.70;60.00;;;;;;4173331;28;20316;-47
2021/12/28 01:34:52;;;;;;;3.22;0.80;;;23.70;60.10;;;;;;4155116;28;20040;-54
2021/12/28 01:36:55;;;;;;;5.38;1.15;;;23.70;60.40;;;;;;4165697;28;20053;-50
2021/12/28 01:38:57;;;;;;;2.45;0.77;;;23.70;60.60;;;;;;4151635;28;20044;-53
2021/12/28 01:40:59;;;;;;;3.55;0.85;;;23.70;58.70;;;;;;4175961;28;20060;-53
2021/12/28 01:43:12;;;;;;;3.33;1.17;;;23.70;58.00;;;;;;4159246;28;20044;-54
2021/12/28 01:45:14;;;;;;;5.65;1.20;;;23.70;57.90;;;;;;4188994;28;20198;-55
2021/12/28 01:47:17;;;;;;;5.25;1.27;;;23.70;58.00;;;;;;4174702;28;20044;-56
2021/12/28 01:49:19;;;;;;;6.00;1.38;;;23.70;57.90;;;;;;4161466;28;20068;-54
2021/12/28 01:51:23;;;;;;;5.38;1.25;;;23.70;58.00;;;;;;4181549;28;20134;-57
2021/12/28 01:53:26;;;;;;;6.30;1.35;;;23.60;58.00;;;;;;4170672;28;20887;-54
2021/12/28 01:55:28;;;;;;;2.55;0.90;;;23.70;58.00;;;;;;4158706;28;21423;-54
2021/12/28 01:57:31;;;;;;;5.15;1.33;;;23.70;58.00;;;;;;4160005;28;20849;-56
2021/12/28 01:59:33;;;;;;;8.38;1.33;;;23.60;57.90;;;;;;4158450;28;20850;-54
2021/12/28 02:01:35;;;;;;;2.75;1.00;;;23.70;57.90;;;;;;4170279;28;21793;-56
2021/12/28 02:03:39;;;;;;;3.40;1.25;;;23.70;57.90;;;;;;4168055;28;20509;-56
2021/12/28 02:05:42;;;;;;;4.05;1.15;;;23.70;57.80;;;;;;4180218;28;20048;-57
2021/12/28 02:07:44;;;;;;;;;;;23.70;57.80;;;;;;4160425;28;20148;-54
2021/12/28 02:09:46;;;;;;;3.53;1.25;;;23.70;57.80;;;;;;4153725;28;20055;-55
2021/12/28 02:11:49;;;;;;;3.08;1.10;;;23.70;57.80;;;;;;4167703;28;20127;-58
2021/12/28 02:13:51;;;;;;;3.20;1.20;;;23.70;57.80;;;;;;4154418;28;20055;-53
2021/12/28 02:15:56;;;;;;;1.57;0.70;;;23.70;57.80;;;;;;4160341;28;20399;-54
2021/12/28 02:17:58;;;;;;;2.45;1.27;;;23.70;57.80;;;;;;4161596;28;20040;-51
2021/12/28 02:20:13;;;;;;;4.13;0.93;;;23.70;57.80;;;;;;4160572;28;20048;-57
2021/12/28 02:22:15;;;;;;;5.97;1.20;;;23.70;57.80;;;;;;4164714;28;20044;-55
2021/12/28 02:24:17;;;;;;;3.63;1.05;;;23.70;57.80;;;;;;4165665;28;20483;-52
2021/12/28 02:26:20;;;;;;;3.70;1.40;;;23.70;57.80;;;;;;4161914;28;20051;-53
2021/12/28 02:28:22;;;;;;;2.58;1.10;;;23.70;57.80;;;;;;4152744;28;20105;-52
2021/12/28 02:30:24;;;;;;;2.97;1.00;;;23.70;57.80;;;;;;4168806;28;20457;-53
2021/12/28 02:32:28;;;;;;;3.38;1.23;;;23.70;57.70;;;;;;4139627;28;22075;-53
2021/12/28 02:34:31;;;;;;;3.42;1.10;;;23.70;57.60;;;;;;4125983;28;20060;-52
2021/12/28 02:36:33;;;;;;;2.47;1.10;;;23.80;57.60;;;;;;4162418;28;20055;-55
2021/12/28 02:38:36;;;;;;;3.92;1.25;;;23.80;57.50;;;;;;4166724;28;20244;-55
2021/12/28 02:40:40;;;;;;;4.22;1.20;;;23.80;57.40;;;;;;4139105;28;20050;-53
2021/12/28 02:42:43;;;;;;;2.53;1.00;;;23.80;57.40;;;;;;4142857;28;20597;-51
2021/12/28 02:44:46;;;;;;;3.35;1.10;;;23.80;57.40;;;;;;4150242;28;20040;-55
2021/12/28 02:46:48;;;;;;;4.68;1.10;;;23.80;57.30;;;;;;4164589;28;21635;-53
2021/12/28 02:48:50;;;;;;;3.75;0.90;;;23.80;57.30;;;;;;4138704;28;20052;-53
2021/12/28 02:50:58;;;;;;;4.72;1.20;;;23.80;57.30;;;;;;4145997;28;20419;-56
2021/12/28 02:53:01;;;;;;;3.42;1.30;;;23.80;57.20;;;;;;4143914;28;20095;-56
2021/12/28 02:55:12;;;;;;;2.85;1.00;;;23.80;57.10;;;;;;4161192;28;21439;-55
2021/12/28 02:57:14;;;;;;;3.55;1.20;;;23.80;57.00;;;;;;4156638;28;20085;-53
2021/12/28 02:59:16;;;;;;;3.72;1.20;;;23.80;57.10;;;;;;4151132;28;20047;-48
2021/12/28 03:01:26;;;;;;;3.42;0.77;;;23.80;57.20;;;;;;4147633;28;20056;-55
2021/12/28 03:03:30;;;;;;;4.07;1.42;;;23.80;57.50;;;;;;4160946;28;21454;-55
2021/12/28 03:05:33;;;;;;;3.15;1.13;;;23.80;57.80;;;;;;4155080;28;20799;-48
2021/12/28 03:07:35;;;;;;;3.40;1.00;;;23.90;57.90;;;;;;4135975;28;20051;-47
2021/12/28 03:09:40;;;;;;;4.95;0.93;;;23.90;58.00;;;;;;4138208;28;20487;-53
2021/12/28 03:11:42;;;;;;;2.15;1.05;;;23.90;58.10;;;;;;4130605;28;20170;-45
2021/12/28 03:13:47;;;;;;;5.72;1.20;;;23.90;58.20;;;;;;4151410;28;20599;-50
2021/12/28 03:15:50;;;;;;;11.38;1.25;;;23.90;58.30;;;;;;4154300;28;20371;-51
2021/12/28 03:17:54;;;;;;;5.18;1.30;;;24.00;58.50;;;;;;4156838;28;20056;-52
2021/12/28 03:19:55;;;;;;;;;;;24.00;58.80;;;;;;4149366;28;20054;-47
2021/12/28 03:22:01;;;;;;;5.00;1.15;;;24.00;58.80;;;;;;4137020;28;19925;-55
2021/12/28 03:24:03;;;;;;;6.38;1.55;;;24.00;59.10;;;;;;4138088;28;20051;-51
2021/12/28 03:26:07;;;;;;;4.17;1.33;;;24.00;59.40;;;;;;4138727;28;20052;-55
2021/12/28 03:28:16;;;;;;;7.90;1.20;;;24.00;59.50;;;;;;4144191;28;20049;-50
2021/12/28 03:30:19;;;;;;;3.15;0.90;;;24.00;59.60;;;;;;4135465;28;20052;-51
2021/12/28 03:32:21;;;;;;;;;;;24.10;59.60;;;;;;4137695;28;20064;-52
2021/12/28 03:34:23;;;;;;;5.60;1.38;;;24.10;59.70;;;;;;4159752;28;20072;-57
2021/12/28 03:36:29;;;;;;;7.90;1.23;;;24.10;59.80;;;;;;4144654;28;20824;-51
2021/12/28 03:38:32;;;;;;;5.07;1.08;;;24.10;59.90;;;;;;4131922;28;20155;-54
2021/12/28 03:40:34;;;;;;;3.75;1.00;;;24.10;59.80;;;;;;4157679;28;20074;-49
2021/12/28 03:42:37;;;;;;;2.00;0.90;;;24.20;60.00;;;;;;4157182;28;20189;-54
2021/12/28 03:44:40;;;;;;;2.10;0.90;;;24.20;60.00;;;;;;4160883;28;20249;-46
2021/12/28 03:46:42;;;;;;;2.58;0.88;;;24.20;60.00;;;;;;4154914;28;20142;-53
2021/12/28 03:48:45;;;;;;;4.43;0.88;;;24.20;60.10;;;;;;4159267;28;20125;-55
2021/12/28 03:50:47;;;;;;;;;;;24.20;60.10;;;;;;4163998;28;20052;-50
2021/12/28 03:52:50;;;;;;;4.32;1.00;;;24.20;60.10;;;;;;4160035;28;19924;-48
2021/12/28 03:54:52;;;;;;;8.02;1.40;;;24.20;60.00;;;;;;4156257;28;20050;-52
2021/12/28 03:56:56;;;;;;;3.67;1.33;;;24.30;60.10;;;;;;4148813;28;20472;-48
2021/12/28 03:58:58;;;;;;;2.28;1.02;;;24.30;60.10;;;;;;4160496;28;20059;-49
2021/12/28 04:02:14;;;;;;;2.08;1.02;;;24.30;59.50;;;;;;4159211;28;20446;-50
2021/12/28 04:04:16;;;;;;;4.03;1.00;;;24.30;60.10;;;;;;4157341;28;20060;-47
2021/12/28 04:06:20;;;;;;;2.47;1.00;;;24.40;60.20;;;;;;4163354;28;20056;-49
2021/12/28 04:08:24;;;;;;;1.90;1.00;;;24.40;60.00;;;;;;4167484;28;20056;-47
2021/12/28 04:10:32;;;;;;;5.22;1.10;;;24.40;60.10;;;;;;4159011;28;20051;-50
2021/12/28 04:12:35;;;;;;;2.75;0.82;;;24.40;60.00;;;;;;4158962;28;20660;-47
2021/12/28 04:14:37;;;;;;;5.43;1.08;;;24.40;60.00;;;;;;4161304;28;20072;-52
2021/12/28 04:16:39;;;;;;;2.50;0.75;;;24.50;60.10;;;;;;4169903;28;20083;-50
2021/12/28 04:18:42;;;;;;;1.50;0.80;;;24.40;60.00;;;;;;4157841;28;20670;-52
2021/12/28 04:20:44;;;;;;;2.92;1.02;;;24.50;60.10;;;;;;4161520;28;20060;-54
2021/12/28 04:22:47;;;;;;;2.63;0.80;;;24.50;60.00;;;;;;4168657;28;20048;-52
2021/12/28 04:24:49;;;;;;;6.65;1.60;;;24.60;60.60;;;;;;4161894;28;21971;-50
2021/12/28 04:26:51;;;;;;;8.02;1.80;;;24.60;59.90;;;;;;4159945;28;20044;-47
2021/12/28 04:28:54;;;;;;;4.22;1.00;;;24.60;59.60;;;;;;4163686;28;20163;-54
2021/12/28 04:30:57;;;;;;;4.68;1.02;;;24.60;59.60;;;;;;4133896;28;20053;-46
2021/12/28 04:32:59;;;;;;;2.95;1.10;;;24.70;59.60;;;;;;4158716;28;20064;-48
2021/12/28 04:35:01;;;;;;;5.97;1.55;;;24.70;59.50;;;;;;4157361;28;20049;-55
2021/12/28 04:37:04;;;;;;;7.45;1.45;;;24.70;59.50;;;;;;4154235;28;20686;-54
2021/12/28 04:39:07;;;;;;;4.95;1.13;;;24.80;59.50;;;;;;4141366;28;20049;-48
2021/12/28 04:41:09;;;;;;;6.22;1.42;;;24.80;59.80;;;;;;4157442;28;20052;-50
2021/12/28 04:43:13;;;;;;;2.15;1.10;;;24.80;59.40;;;;;;4153255;28;20049;-50
2021/12/28 04:45:16;;;;;;;2.60;1.05;;;24.80;59.40;;;;;;4163085;28;20078;-46
2021/12/28 04:47:18;;;;;;;2.55;1.10;;;24.80;59.30;;;;;;4130231;28;20491;-49
2021/12/28 04:49:24;;;;;;;2.90;0.80;;;24.80;59.20;;;;;;4157468;28;20079;-50
2021/12/28 04:51:27;;;;;;;2.35;1.08;;;24.80;59.30;;;;;;4167738;28;20060;-54
2021/12/28 04:53:29;;;;;;;3.42;0.95;;;24.80;59.40;;;;;;4148325;28;20967;-54
2021/12/28 04:55:31;;;;;;;2.57;1.00;;;24.80;59.50;;;;;;4145608;28;20059;-51
2021/12/28 04:57:33;;;;;;;2.17;0.80;;;24.80;59.50;;;;;;4150078;28;20810;-48
2021/12/28 04:59:36;;;;;;;4.03;1.20;;;24.80;59.40;;;;;;4165135;28;22057;-48
2021/12/28 05:01:38;;;;;;;3.90;1.08;;;24.80;59.40;;;;;;4111382;28;20153;-49
2021/12/28 05:03:40;;;;;;;11.65;1.30;;;24.80;59.40;;;;;;4132476;28;20098;-54
2021/12/28 05:05:45;;;;;;;5.38;0.77;;;24.90;59.40;;;;;;4165670;28;20052;-48
2021/12/28 05:07:47;;;;;;;4.93;1.05;;;24.90;59.40;;;;;;4148105;28;20048;-48
2021/12/28 05:09:50;;;;;;;3.95;1.02;;;24.90;59.50;;;;;;4145231;28;20182;-49
2021/12/28 05:11:53;;;;;;;8.85;1.08;;;24.90;59.50;;;;;;4163452;28;20208;-50
2021/12/28 05:13:55;;;;;;;2.28;1.05;;;24.90;59.50;;;;;;4154294;28;20149;-48
2021/12/28 05:15:57;;;;;;;4.57;0.90;;;24.90;59.40;;;;;;4146642;28;20127;-48
2021/12/28 05:17:59;;;;;;;5.22;1.02;;;24.90;59.40;;;;;;4138440;28;20174;-54
2021/12/28 05:20:01;;;;;;;3.38;0.80;;;25.00;59.40;;;;;;4157848;28;20058;-48
2021/12/28 05:22:04;;;;;;;9.55;1.13;;;25.00;59.50;;;;;;4133255;28;20238;-50
2021/12/28 05:24:06;;;;;;;6.70;1.08;;;25.00;59.30;;;;;;4138991;28;20864;-52
2021/12/28 05:26:09;;;;;;;3.40;1.10;;;25.10;59.20;;;;;;4138144;28;20480;-50
2021/12/28 05:28:11;;;;;;;8.50;1.00;;;25.10;58.90;;;;;;4148415;28;20751;-49
2021/12/28 05:30:15;;;;;;;3.80;0.93;;;25.10;58.30;;;;;;4133460;28;20044;-51
2021/12/28 05:32:17;;;;;;;4.82;1.23;;;25.20;58.40;;;;;;4144956;28;20395;-54
2021/12/28 05:34:20;;;;;;;2.75;0.95;;;25.20;58.10;;;;;;4134936;28;20056;-52
2021/12/28 05:36:23;;;;;;;5.68;0.98;;;25.20;56.90;;;;;;4136127;28;20037;-53
2021/12/28 05:38:25;;;;;;;;;;;25.20;56.00;;;;;;4152278;28;20052;-56
2021/12/28 05:40:27;;;;;;;4.97;1.10;;;25.20;55.90;;;;;;4154319;28;19929;-53
2021/12/28 05:42:29;;;;;;;3.58;1.25;;;25.20;55.40;;;;;;4146191;28;20052;-56
2021/12/28 05:44:31;;;;;;;4.25;1.30;;;25.20;55.10;;;;;;4135935;28;20405;-58
2021/12/28 05:46:34;;;;;;;2.70;1.30;;;25.20;55.10;;;;;;4141584;28;20492;-55
2021/12/28 05:48:36;;;;;;;3.97;1.15;;;25.20;55.40;;;;;;4137954;28;20187;-53
2021/12/28 05:50:38;;;;;;;3.55;1.13;;;25.30;54.70;;;;;;4147380;28;20052;-53
2021/12/28 05:52:40;;;;;;;5.57;1.80;;;25.30;54.50;;;;;;4143628;28;20598;-54
2021/12/28 05:54:42;;;;;;;5.72;1.70;;;25.30;54.50;;;;;;4127563;28;20056;-56
2021/12/28 05:56:45;;;;;;;5.43;1.40;;;25.30;54.30;;;;;;4151515;28;20052;-55
2021/12/28 05:58:47;;;;;;;5.35;1.40;;;25.40;54.40;;;;;;4156519;28;20151;-58
2021/12/28 06:00:49;;;;;;;2.92;1.27;;;25.40;54.40;;;;;;4143786;28;20052;-54
2021/12/28 06:02:52;;;;;;;3.70;1.27;;;25.40;54.40;;;;;;4136918;28;20106;-55
2021/12/28 06:04:54;;;;;;;3.20;0.90;;;25.40;54.30;;;;;;4144358;28;20122;-53
2021/12/28 06:06:56;;;;;;;3.65;1.35;;;25.40;54.40;;;;;;4154819;28;21414;-56
2021/12/28 06:08:58;;;;;;;6.28;1.45;;;25.40;54.00;;;;;;4151556;28;20044;-57
2021/12/28 06:11:03;;;;;;;2.28;0.85;;;25.40;53.60;;;;;;4141236;28;20041;-57
2021/12/28 06:13:05;;;;;;;2.67;1.20;;;25.50;53.50;;;;;;4147470;28;20140;-53
2021/12/28 06:15:08;;;;;;;3.67;1.10;;;25.50;53.50;;;;;;4149876;28;20044;-50
2021/12/28 06:17:09;;;;;;;;;;;25.50;53.80;;;;;;4152356;28;20056;-49
2021/12/28 06:19:12;;;;;;;2.17;1.00;;;25.50;54.20;;;;;;4156999;28;19932;-55
2021/12/28 06:21:14;;;;;;;4.28;1.23;;;25.50;54.40;;;;;;4141029;28;20215;-51
2021/12/28 06:23:17;;;;;;;1.80;0.63;;;25.50;54.70;;;;;;4135482;28;20064;-50
2021/12/28 06:25:19;;;;;;;2.95;1.02;;;25.60;54.90;;;;;;4158059;28;20125;-56
2021/12/28 06:27:21;;;;;;;4.30;0.90;;;25.70;55.10;;;;;;4140494;28;20060;-53
2021/12/28 06:29:23;;;;;;;3.40;0.93;;;25.70;55.20;;;;;;4122437;28;20119;-51
2021/12/28 06:31:29;;;;;;;1.67;0.85;;;25.70;55.30;;;;;;4149279;28;20151;-54
2021/12/28 06:33:31;;;;;;;2.78;1.13;;;25.80;55.30;;;;;;4144677;28;20053;-52
2021/12/28 06:35:33;;;;;;;4.50;1.10;;;25.80;55.40;;;;;;4149344;28;20197;-56
2021/12/28 06:37:35;;;;;;;3.25;1.08;;;25.90;55.40;;;;;;4137222;28;20057;-54
2021/12/28 06:39:37;;;;;;;2.78;0.82;;;25.90;55.70;;;;;;4144593;28;20419;-55
2021/12/28 06:41:40;;;;;;;2.45;0.80;;;25.90;55.60;;;;;;4138249;28;20048;-55
2021/12/28 06:43:42;;;;;;;2.90;1.20;;;25.90;55.90;;;;;;4136176;28;20978;-54
2021/12/28 06:45:44;;;;;;;3.17;1.13;;;26.00;55.50;;;;;;4145026;28;20168;-54
2021/12/28 06:47:47;;;;;;;1.65;0.73;;;26.00;55.40;;;;;;4136864;28;20057;-51
2021/12/28 06:49:49;;;;;;;2.40;0.90;;;26.10;55.50;;;;;;4117845;28;20057;-50
2021/12/28 06:51:51;;;;;;;4.45;1.13;;;26.10;55.60;;;;;;4150584;28;20052;-55
2021/12/28 06:53:53;;;;;;;3.17;0.90;;;26.10;55.40;;;;;;4144664;28;21124;-53
2021/12/28 06:55:55;;;;;;;4.40;0.93;;;26.10;55.40;;;;;;4109681;28;20060;-51
2021/12/28 06:57:58;;;;;;;6.03;1.17;;;26.10;55.50;;;;;;4147170;28;20193;-55
2021/12/28 07:00:01;;;;;;;11.47;1.60;;;26.10;55.40;;;;;;4137995;28;20143;-55
2021/12/28 07:02:03;;;;;;;3.78;1.33;;;26.10;55.20;;;;;;4128957;28;20107;-55
2021/12/28 07:04:05;;;;;;;2.57;0.73;;;26.10;55.00;;;;;;4139302;28;20040;-50
2021/12/28 07:06:07;;;;;;;6.30;1.23;;;26.10;54.80;;;;;;4152981;28;20331;-55
2021/12/28 07:08:09;;;;;;;4.33;1.10;;;26.10;54.80;;;;;;4130667;28;20059;-55
2021/12/28 07:10:12;;;;;;;5.20;1.00;;;26.20;54.70;;;;;;4141716;28;20567;-52
2021/12/28 07:12:14;;;;;;;9.50;1.40;;;26.10;54.30;;;;;;4137980;28;20064;-54
2021/12/28 07:14:16;;;;;;;4.78;1.35;;;26.10;54.10;;;;;;4115457;28;21268;-53
2021/12/28 07:16:19;;;;;;;5.22;1.13;;;26.10;53.90;;;;;;4128836;28;20120;-55
2021/12/28 07:18:21;;;;;;;4.30;1.42;;;26.10;53.80;;;;;;4138590;28;20053;-56
2021/12/28 07:20:24;;;;;;;7.25;1.35;;;26.10;53.70;;;;;;4146459;28;20415;-56
2021/12/28 07:22:26;;;;;;;4.25;1.25;;;26.10;53.40;;;;;;4129416;28;20199;-56
2021/12/28 07:24:28;;;;;;;3.20;1.07;;;26.00;53.30;;;;;;4130995;28;20759;-58
2021/12/28 07:26:30;;;;;;;1.90;0.80;;;26.00;53.20;;;;;;4138341;28;20639;-58
2021/12/28 07:28:32;;;;;;;2.13;1.00;;;26.00;53.00;;;;;;4126199;28;20177;-58
2021/12/28 07:30:35;;;;;;;1.38;0.57;;;25.90;52.90;;;;;;4145973;28;20056;-57
2021/12/28 07:32:37;;;;;;;3.60;1.13;;;25.90;52.80;;;;;;4152371;28;20095;-57
2021/12/28 07:34:40;;;;;;;3.65;0.93;;;25.90;52.80;;;;;;4113258;28;20584;-56
2021/12/28 07:36:42;;;;;;;1.98;0.75;;;25.90;52.70;;;;;;4112396;28;20041;-56
2021/12/28 07:38:44;;;;;;;2.55;1.30;;;25.90;53.20;;;;;;4138046;28;21353;-56
2021/12/28 07:40:46;;;;;;;2.45;1.17;;;25.90;52.60;;;;;;4143382;28;20156;-56
2021/12/28 07:42:49;;;;;;;2.50;0.90;;;25.80;52.60;;;;;;4143475;28;20051;-56
2021/12/28 07:44:51;;;;;;;2.92;0.90;;;25.80;52.60;;;;;;4154189;28;20048;-56
2021/12/28 07:46:53;;;;;;;4.15;0.82;;;25.80;52.70;;;;;;4147673;28;20960;-57
2021/12/28 07:48:55;;;;;;;3.42;1.17;;;25.80;52.70;;;;;;4140917;28;20159;-57
2021/12/28 07:50:58;;;;;;;2.75;1.20;;;25.70;52.60;;;;;;4150321;28;20092;-57
2021/12/28 07:53:00;;;;;;;5.50;1.10;;;25.70;52.40;;;;;;4149154;28;22277;-52
2021/12/28 07:55:06;;;;;;;3.75;1.00;;;25.70;52.40;;;;;;4144890;28;20141;-56
2021/12/28 07:57:08;;;;;;;3.72;1.00;;;25.70;52.90;;;;;;4138814;28;20496;-56
2021/12/28 07:59:11;;;;;;;2.58;0.93;;;25.70;52.40;;;;;;4119642;28;20067;-56
2021/12/28 08:01:13;;;;;;;4.55;1.10;;;25.70;52.30;;;;;;4124256;28;21926;-58
2021/12/28 08:03:15;;;;;;;4.43;1.50;;;25.70;52.20;;;;;;4122642;28;21357;-57
2021/12/28 08:05:18;;;;;;;3.05;1.50;;;25.60;52.10;;;;;;4133037;28;20110;-57
2021/12/28 08:07:20;;;;;;;4.95;1.33;;;25.60;52.10;;;;;;4124956;28;22545;-55
2021/12/28 08:09:23;;;;;;;3.58;1.15;;;25.60;52.10;;;;;;4124297;28;20821;-57
2021/12/28 08:11:25;;;;;;;4.38;1.70;;;25.60;52.10;;;;;;4127055;28;20076;-57
2021/12/28 08:13:27;;;;;;;3.50;1.33;;;25.50;52.20;;;;;;4115270;28;20352;-56
2021/12/28 08:15:30;;;;;;;3.65;1.35;;;25.50;52.20;;;;;;4123689;28;20649;-54
2021/12/28 08:17:32;;;;;;;3.87;1.67;;;25.50;52.30;;;;;;4128134;28;20060;-57
2021/12/28 08:19:35;;;;;;;5.35;1.90;;;25.40;52.40;;;;;;4132218;28;20181;-55
2021/12/28 08:21:37;;;;;;;4.13;2.00;;;25.40;52.40;;;;;;4122659;28;20048;-55
2021/12/28 08:23:40;;;;;;;4.00;2.63;;;25.40;52.40;;;;;;4124154;28;20106;-54
2021/12/28 08:25:42;;;;;;;5.83;3.00;;;25.40;52.40;;;;;;4133152;28;20049;-55
2021/12/28 08:27:45;;;;;;;5.13;2.97;;;25.40;52.30;;;;;;4123807;28;20389;-51
2021/12/28 08:29:47;;;;;;;6.53;4.93;;;25.40;52.30;;;;;;4107716;28;20140;-55
2021/12/28 08:31:49;;;;;;;5.80;3.92;;;25.30;52.20;;;;;;4130699;28;20049;-57
2021/12/28 08:33:51;;;;;;;7.47;5.00;;;25.30;52.20;;;;;;4129569;28;20072;-58
2021/12/28 08:35:54;;;;;;;8.70;5.25;;;25.30;52.20;;;;;;4125576;28;20107;-58
2021/12/28 08:37:57;;;;;;;7.88;5.82;;;25.30;52.20;;;;;;4128728;28;20247;-58
2021/12/28 08:40:00;;;;;;;9.27;6.22;;;25.20;52.10;;;;;;4129490;28;20053;-56
2021/12/28 08:42:02;;;;;;;8.45;5.95;;;25.20;52.40;;;;;;4122731;28;20120;-55
2021/12/28 08:44:05;;;;;;;6.50;5.40;;;25.20;52.20;;;;;;4124972;28;20060;-57
2021/12/28 08:46:07;;;;;;;8.98;5.68;;;25.20;52.60;;;;;;4133094;28;20232;-57
2021/12/28 08:48:11;;;;;;;8.77;5.80;;;25.10;52.40;;;;;;4124202;28;20049;-55
2021/12/28 08:50:13;;;;;;;5.85;4.82;;;25.10;52.40;;;;;;4126185;28;20681;-56
2021/12/28 08:52:16;;;;;;;6.82;5.05;;;25.10;52.40;;;;;;4135584;28;20049;-57
2021/12/28 08:54:18;;;;;;;5.60;4.50;;;25.10;52.90;;;;;;4128660;28;21326;-54
2021/12/28 08:56:20;;;;;;;5.25;4.00;;;25.10;52.90;;;;;;4127295;28;20060;-56
2021/12/28 08:58:22;;;;;;;5.63;4.22;;;25.10;52.90;;;;;;4131578;28;20785;-58
2021/12/28 09:00:28;;;;;;;6.70;4.37;;;25.10;52.90;;;;;;4132256;28;21224;-58
2021/12/28 09:02:30;;;;;;;5.65;3.65;;;25.10;52.80;;;;;;4119289;28;20048;-55
2021/12/28 09:04:32;;;;;;;5.43;4.00;;;25.00;53.00;;;;;;4122288;28;20048;-58
2021/12/28 09:06:34;;;;;;;5.40;3.65;;;25.00;53.00;;;;;;4133581;28;20079;-54
2021/12/28 09:08:37;;;;;;;5.20;3.33;;;25.00;53.00;;;;;;4127507;28;20060;-55
2021/12/28 09:10:40;;;;;;;4.43;2.63;;;25.00;53.00;;;;;;4127562;28;20048;-54
2021/12/28 09:12:43;;;;;;;4.82;2.92;;;25.00;53.00;;;;;;4135209;28;20107;-57
2021/12/28 09:14:46;;;;;;;4.65;3.20;;;24.90;53.00;;;;;;4131063;28;20061;-54
2021/12/28 09:16:48;;;;;;;4.63;2.40;;;24.90;52.90;;;;;;4126439;28;20048;-56
2021/12/28 09:18:51;;;;;;;3.90;2.90;;;24.90;52.80;;;;;;4130154;28;20081;-57
2021/12/28 09:20:56;;;;;;;4.82;2.67;;;24.90;53.10;;;;;;4136670;28;20735;-57
2021/12/28 09:22:58;;;;;;;4.45;2.60;;;24.90;53.00;;;;;;4123323;28;20052;-51
2021/12/28 09:25:00;;;;;;;3.53;2.28;;;24.90;53.00;;;;;;4129418;28;20502;-54
2021/12/28 09:27:03;;;;;;;3.58;2.25;;;24.90;52.40;;;;;;4116414;28;20041;-57
2021/12/28 09:29:05;;;;;;;5.13;2.17;;;24.80;53.00;;;;;;4112996;28;21116;-57
2021/12/28 09:31:08;;;;;;;3.67;2.03;;;24.80;53.00;;;;;;4127304;28;20045;-58
2021/12/28 09:33:12;;;;;;;3.00;2.00;;;24.80;53.00;;;;;;4132331;28;20518;-59
2021/12/28 09:35:14;;;;;;;3.50;2.30;;;24.80;53.30;;;;;;4135532;28;20052;-54
2021/12/28 09:37:19;;;;;;;3.37;1.93;;;24.80;53.00;;;;;;4110205;28;20049;-55
2021/12/28 09:39:22;;;;;;;3.58;1.88;;;24.80;53.00;;;;;;4125617;28;20045;-56
2021/12/28 09:41:25;;;;;;;3.67;1.70;;;24.70;53.00;;;;;;4134811;28;20077;-58
2021/12/28 09:43:28;;;;;;;3.72;1.77;;;24.70;52.90;;;;;;4129379;28;20053;-58
2021/12/28 09:45:31;;;;;;;3.38;1.80;;;24.70;53.00;;;;;;4127063;28;20143;-55
2021/12/28 09:47:35;;;;;;;3.70;2.05;;;24.70;52.90;;;;;;4129215;28;20199;-57
2021/12/28 09:49:37;;;;;;;2.80;1.55;;;24.70;53.00;;;;;;4135041;28;20541;-57
2021/12/28 09:51:39;;;;;;;2.88;1.40;;;24.60;53.20;;;;;;4128548;28;20733;-56
2021/12/28 09:53:43;;;;;;;2.75;1.42;;;24.60;52.90;;;;;;4125563;28;20060;-56
2021/12/28 09:55:45;;;;;;;2.75;1.50;;;24.60;53.00;;;;;;4135758;28;20099;-55
2021/12/28 09:57:47;;;;;;;;;;;24.60;52.90;;;;;;4114095;28;20248;-56
2021/12/28 09:59:50;;;;;;;3.67;1.60;;;24.60;53.10;;;;;;4127234;28;19929;-56
2021/12/28 10:02:14;;;;;;;2.78;1.30;;;24.60;52.50;;;;;;4143972;27;20428;-57
2021/12/28 10:04:18;;;;;;;2.85;1.20;;;24.60;53.40;;;;;;4140116;28;20041;-55
2021/12/28 10:06:26;;;;;;;1.67;1.00;;;24.50;52.90;;;;;;4141596;28;20052;-56
2021/12/28 10:08:29;;;;;;;2.53;1.23;;;24.50;52.90;;;;;;4146415;28;20102;-58
2021/12/28 10:10:34;;;;;;;3.30;1.30;;;24.50;53.10;;;;;;4131609;28;20067;-57
2021/12/28 10:12:49;;;;;;;2.30;1.20;;;24.50;53.10;;;;;;4127010;28;20350;-57
2021/12/28 10:14:55;;;;;;;3.85;1.23;;;24.50;53.10;;;;;;4143676;28;20064;-55
2021/12/28 10:17:03;;;;;;;2.35;1.15;;;24.40;53.40;;;;;;4143329;28;20037;-56
2021/12/28 10:19:34;;;;;;;1.92;1.00;;;24.40;53.20;;;;;;4122066;28;20045;-55
2021/12/28 10:21:36;;;;;;;2.20;1.10;;;24.40;53.10;;;;;;4142637;28;20052;-54
2021/12/28 10:23:38;;;;;;;1.23;0.80;;;24.40;53.10;;;;;;4135281;28;20041;-58
2021/12/28 10:25:48;;;;;;;2.13;0.90;;;24.40;53.00;;;;;;4141167;28;20055;-58
2021/12/28 10:28:14;;;;;;;1.88;1.10;;;24.40;53.00;;;;;;4147952;28;20041;-55
2021/12/28 10:30:26;;;;;;;3.88;1.30;;;24.40;53.10;;;;;;4140872;28;20044;-57
2021/12/28 10:32:29;;;;;;;1.63;0.83;;;24.30;52.90;;;;;;4142465;28;20063;-57
2021/12/28 10:34:32;;;;;;;1.75;0.70;;;24.30;52.80;;;;;;4139787;28;20316;-58
2021/12/28 10:36:37;;;;;;;2.17;0.90;;;24.30;53.00;;;;;;4151623;28;20086;-57
2021/12/28 10:38:46;;;;;;;2.25;1.05;;;24.30;52.80;;;;;;4141932;28;20049;-57
2021/12/28 10:40:54;;;;;;;1.65;0.77;;;24.30;52.90;;;;;;4141407;28;20457;-57
2021/12/28 10:43:12;;;;;;;2.60;0.70;;;24.30;53.00;;;;;;4138805;28;20048;-55
2021/12/28 10:45:19;;;;;;;1.92;0.85;;;24.20;52.80;;;;;;4142292;28;20056;-56